Time;durP1;ratioP1;P1;durP2;ratioP2;P2;SDS_P1;SDS_P2;PMS_P1;PMS_P2;Temp;Humidity;BMP_temperature;BMP_pressure;BME280_temperature;BME280_humidity;BME280_pressure;Samples;Min_cycle;Max_cycle;Signal;HPM_P1;HPM_P2
2021/10/28 00:13:54;;;;;;;8.93;6.10;;;7.20;99.90;;;;;;5051383;28;20059;-79
2021/10/28 00:16:24;;;;;;;9.45;6.40;;;7.20;99.90;;;;;;5051647;28;20049;-79
2021/10/28 00:19:00;;;;;;;9.27;6.00;;;7.20;99.90;;;;;;5051286;28;20128;-78
2021/10/28 00:21:29;;;;;;;10.45;5.93;;;7.20;99.90;;;;;;5051347;28;20049;-80
2021/10/28 00:24:00;;;;;;;8.60;5.15;;;7.20;99.90;;;;;;5051190;28;20142;-77
2021/10/28 00:26:28;;;;;;;8.68;5.78;;;7.20;99.90;;;;;;5051321;28;20139;-81
2021/10/28 00:28:59;;;;;;;10.13;6.00;;;7.10;99.90;;;;;;5051239;28;20491;-78
2021/10/28 00:31:26;;;;;;;9.40;5.40;;;7.10;99.90;;;;;;5051611;28;20098;-79
2021/10/28 00:33:56;;;;;;;8.60;5.50;;;7.10;99.90;;;;;;5050970;28;20501;-79
2021/10/28 00:36:23;;;;;;;9.40;6.13;;;7.10;99.90;;;;;;5051178;28;20135;-79
2021/10/28 00:38:50;;;;;;;9.90;6.25;;;7.20;99.90;;;;;;5051122;28;20467;-80
2021/10/28 00:41:19;;;;;;;9.20;6.25;;;7.00;99.90;;;;;;5051311;28;20103;-77
2021/10/28 00:43:49;;;;;;;9.77;5.93;;;7.00;99.90;;;;;;5051035;28;20052;-79
2021/10/28 00:46:18;;;;;;;9.63;6.10;;;6.90;99.90;;;;;;5051193;28;20045;-77
2021/10/28 00:48:46;;;;;;;9.25;6.00;;;6.90;99.90;;;;;;5051220;28;20049;-77
2021/10/28 00:51:16;;;;;;;9.18;5.80;;;6.80;99.90;;;;;;5051301;28;20128;-78
2021/10/28 00:53:44;;;;;;;10.57;6.38;;;6.70;99.90;;;;;;5050926;28;20132;-76
2021/10/28 00:56:11;;;;;;;9.90;6.53;;;6.80;99.90;;;;;;5050903;28;20124;-77
2021/10/28 00:58:39;;;;;;;10.23;6.50;;;6.80;99.90;;;;;;5050667;28;20132;-76
2021/10/28 01:01:07;;;;;;;11.35;6.15;;;6.70;99.90;;;;;;5054873;28;20114;-76
2021/10/28 01:03:37;;;;;;;8.65;6.20;;;6.60;99.90;;;;;;5054590;28;20131;-76
2021/10/28 01:06:06;;;;;;;9.70;6.45;;;6.60;99.90;;;;;;5039319;28;20044;-78
2021/10/28 01:08:37;;;;;;;10.05;6.80;;;6.50;99.90;;;;;;5054257;28;20153;-77
2021/10/28 01:11:05;;;;;;;9.93;6.50;;;6.50;99.90;;;;;;5039421;28;20167;-76
2021/10/28 01:13:34;;;;;;;10.60;6.18;;;6.40;99.90;;;;;;5054185;28;20107;-79
2021/10/28 01:16:02;;;;;;;11.02;5.35;;;6.30;99.90;;;;;;5054536;28;20048;-79
2021/10/28 01:18:30;;;;;;;8.40;5.90;;;6.30;99.90;;;;;;5054624;28;20144;-76
2021/10/28 01:20:58;;;;;;;9.48;6.28;;;6.30;99.90;;;;;;5054330;28;20186;-78
2021/10/28 01:23:27;;;;;;;7.25;5.40;;;6.30;99.90;;;;;;5054223;28;20145;-76
2021/10/28 01:25:56;;;;;;;7.43;5.28;;;6.20;99.90;;;;;;5053962;28;20546;-77
2021/10/28 01:28:26;;;;;;;8.77;5.53;;;6.00;99.90;;;;;;5054564;28;20139;-76
2021/10/28 01:30:56;;;;;;;6.93;4.72;;;5.80;99.90;;;;;;5054230;28;20140;-78
2021/10/28 01:33:24;;;;;;;7.82;5.00;;;5.70;99.90;;;;;;5054024;28;20156;-77
2021/10/28 01:35:53;;;;;;;6.50;4.70;;;5.70;99.90;;;;;;5053868;28;20173;-77
2021/10/28 01:38:22;;;;;;;7.80;5.35;;;5.60;99.90;;;;;;5053781;28;20410;-79
2021/10/28 01:40:55;;;;;;;7.18;4.82;;;5.60;99.90;;;;;;5053622;28;20045;-78
2021/10/28 01:43:23;;;;;;;6.97;4.72;;;5.70;99.90;;;;;;5053894;28;20418;-78
2021/10/28 01:45:50;;;;;;;6.68;4.70;;;5.70;99.90;;;;;;5053660;28;20550;-77
2021/10/28 01:48:18;;;;;;;7.70;5.15;;;5.80;99.90;;;;;;5053778;28;20059;-78
2021/10/28 01:50:45;;;;;;;7.45;5.30;;;5.90;99.90;;;;;;5053573;28;20514;-77
2021/10/28 01:53:13;;;;;;;7.65;5.30;;;5.80;99.90;;;;;;5053372;28;20131;-78
2021/10/28 01:55:42;;;;;;;6.75;4.85;;;5.80;99.90;;;;;;5053754;28;20132;-78
2021/10/28 01:58:11;;;;;;;6.43;4.57;;;5.80;99.90;;;;;;5053563;28;20135;-77
2021/10/28 02:00:40;;;;;;;6.63;4.43;;;5.70;99.90;;;;;;5053545;28;20418;-78
2021/10/28 02:03:07;;;;;;;6.88;4.93;;;5.70;99.90;;;;;;5053503;28;20049;-77
2021/10/28 02:05:35;;;;;;;6.65;4.70;;;5.80;99.90;;;;;;5053568;28;20084;-78
2021/10/28 02:08:04;;;;;;;7.03;5.10;;;5.90;99.90;;;;;;5053244;28;20045;-78
2021/10/28 02:10:31;;;;;;;6.90;4.80;;;5.90;99.90;;;;;;5053540;28;20045;-80
2021/10/28 02:13:00;;;;;;;8.18;5.00;;;5.90;99.90;;;;;;5052898;28;20137;-79
2021/10/28 02:15:27;;;;;;;7.28;5.03;;;5.90;99.90;;;;;;5053518;28;20045;-78
2021/10/28 02:17:54;;;;;;;8.75;5.40;;;5.90;99.90;;;;;;5052912;28;20172;-79
2021/10/28 02:20:22;;;;;;;8.10;5.28;;;5.90;99.90;;;;;;5053264;28;20080;-77
2021/10/28 02:22:50;;;;;;;9.90;5.07;;;5.90;99.90;;;;;;5052773;28;20536;-79
2021/10/28 02:25:18;;;;;;;7.72;5.22;;;5.90;99.90;;;;;;5053419;28;20060;-78
2021/10/28 02:27:46;;;;;;;8.75;5.28;;;5.90;99.90;;;;;;5053110;28;20559;-78
2021/10/28 02:30:16;;;;;;;9.10;5.43;;;5.80;99.90;;;;;;5053004;28;20464;-77
2021/10/28 02:32:43;;;;;;;8.05;5.45;;;5.70;99.90;;;;;;5052775;28;20044;-78
2021/10/28 02:35:11;;;;;;;8.63;5.72;;;5.70;99.90;;;;;;5053220;28;20084;-79
2021/10/28 02:37:38;;;;;;;8.35;5.50;;;5.80;99.90;;;;;;5053071;28;20069;-77
2021/10/28 02:40:07;;;;;;;8.23;5.75;;;5.70;99.90;;;;;;5052955;28;20894;-80
2021/10/28 02:42:34;;;;;;;9.57;6.25;;;5.70;99.90;;;;;;5052839;28;20124;-79
2021/10/28 02:45:01;;;;;;;10.25;6.78;;;5.80;99.90;;;;;;5052439;28;20470;-79
2021/10/28 02:47:30;;;;;;;10.95;6.40;;;5.70;99.90;;;;;;5052866;28;20517;-78
2021/10/28 02:49:57;;;;;;;9.82;6.30;;;5.70;99.90;;;;;;5052906;28;20084;-78
2021/10/28 02:52:26;;;;;;;9.15;5.97;;;5.70;99.90;;;;;;5052658;28;20080;-78
2021/10/28 02:54:54;;;;;;;8.73;5.93;;;5.70;99.90;;;;;;5052435;28;20088;-79
2021/10/28 02:57:22;;;;;;;8.82;5.75;;;5.70;99.90;;;;;;5052461;28;20045;-80
2021/10/28 02:59:49;;;;;;;7.75;5.25;;;5.70;99.90;;;;;;5052454;28;20055;-78
2021/10/28 03:02:17;;;;;;;8.82;5.93;;;5.70;99.90;;;;;;5051427;28;20445;-79
2021/10/28 03:04:46;;;;;;;8.73;5.63;;;5.70;99.90;;;;;;5049801;28;20084;-77
2021/10/28 03:07:13;;;;;;;7.82;5.32;;;5.60;99.90;;;;;;5049390;28;20128;-78
2021/10/28 03:09:40;;;;;;;7.93;5.13;;;5.70;99.90;;;;;;5047744;28;20132;-76
2021/10/28 03:12:09;;;;;;;8.35;5.75;;;5.60;99.90;;;;;;5048668;28;20131;-76
2021/10/28 03:14:40;;;;;;;8.65;6.03;;;5.60;99.90;;;;;;5048963;28;20456;-78
2021/10/28 03:17:22;;;;;;;7.47;5.10;;;5.60;99.90;;;;;;5048630;28;20116;-78
2021/10/28 03:25:30;;;;;;;8.07;5.40;;;5.40;99.90;;;;;;5048570;28;20044;-77
2021/10/28 03:25:39;;;;;;;7.80;5.07;;;5.10;99.90;;;;;;5048596;28;20158;-78
2021/10/28 03:28:14;;;;;;;8.70;5.57;;;5.00;99.90;;;;;;5033781;28;20175;-77
2021/10/28 03:30:42;;;;;;;10.30;6.18;;;5.10;99.90;;;;;;5048528;28;20128;-79
2021/10/28 03:33:12;;;;;;;10.18;6.35;;;5.10;99.90;;;;;;5048550;28;20569;-78
2021/10/28 03:35:42;;;;;;;8.45;5.88;;;5.00;99.90;;;;;;5048151;28;20036;-76
2021/10/28 03:38:16;;;;;;;9.00;5.88;;;5.10;99.90;;;;;;5048615;28;20077;-78
2021/10/28 03:41:08;;;;;;;9.70;6.22;;;5.10;99.90;;;;;;5048210;28;20479;-78
2021/10/28 03:46:45;;;;;;;;;;;5.00;99.90;;;;;;5048691;28;20068;-80
2021/10/28 04:01:00;;;;;;;8.43;5.43;;;4.70;99.90;;;;;;5131164;27;20043;-80
2021/10/28 04:30:49;;;;;;;19.58;11.68;;;4.70;99.90;;;;;;5150342;27;20095;-78
2021/10/28 04:33:16;;;;;;;17.33;9.85;;;4.70;99.90;;;;;;5150080;27;20066;-77
2021/10/28 04:35:45;;;;;;;12.07;7.53;;;4.70;99.90;;;;;;5135629;27;20131;-78
2021/10/28 04:38:13;;;;;;;13.52;7.40;;;4.70;99.90;;;;;;5129275;28;20130;-80
2021/10/28 04:40:40;;;;;;;13.57;7.50;;;4.60;99.90;;;;;;5129282;28;20082;-79
2021/10/28 04:43:07;;;;;;;10.45;6.13;;;4.60;99.90;;;;;;5129367;28;20119;-79
2021/10/28 04:45:34;;;;;;;9.65;5.65;;;4.50;99.90;;;;;;5129153;28;20134;-79
2021/10/28 04:48:03;;;;;;;10.50;6.10;;;4.50;99.90;;;;;;5128690;28;20134;-79
2021/10/28 04:50:30;;;;;;;9.43;5.43;;;4.40;99.90;;;;;;5128898;28;20555;-78
2021/10/28 04:52:57;;;;;;;13.55;5.85;;;4.40;99.90;;;;;;5129008;28;20075;-78
2021/10/28 04:55:24;;;;;;;11.88;7.07;;;4.40;99.90;;;;;;5128716;28;20134;-78
2021/10/28 04:57:51;;;;;;;11.95;7.35;;;4.30;99.90;;;;;;5128713;28;20143;-80
2021/10/28 05:00:19;;;;;;;14.50;8.90;;;4.40;99.90;;;;;;5128775;28;20398;-81
2021/10/28 05:02:46;;;;;;;21.70;13.48;;;4.40;99.90;;;;;;5128471;28;20561;-80
2021/10/28 05:05:14;;;;;;;20.23;12.02;;;4.50;99.90;;;;;;5128819;28;20135;-81
2021/10/28 05:07:41;;;;;;;40.92;22.08;;;4.60;99.90;;;;;;5121994;28;20101;-81
2021/10/28 05:10:09;;;;;;;62.95;31.23;;;4.60;99.90;;;;;;5114347;28;20589;-81
2021/10/28 05:12:36;;;;;;;66.57;33.13;;;4.60;99.90;;;;;;5115042;28;20075;-80
2021/10/28 05:15:04;;;;;;;70.93;34.47;;;4.60;99.90;;;;;;5114874;28;20119;-80
2021/10/28 05:17:32;;;;;;;44.75;23.77;;;4.70;99.90;;;;;;5114756;28;20123;-78
2021/10/28 05:19:59;;;;;;;34.25;17.58;;;4.60;99.90;;;;;;5115274;28;20136;-78
2021/10/28 05:22:27;;;;;;;20.58;10.82;;;4.70;99.90;;;;;;5115225;28;20163;-79
2021/10/28 05:24:54;;;;;;;23.85;11.43;;;4.60;99.90;;;;;;5114988;28;20475;-77
2021/10/28 05:27:21;;;;;;;34.15;17.88;;;4.60;99.90;;;;;;5114936;28;20466;-77
2021/10/28 05:29:49;;;;;;;23.60;12.52;;;4.50;99.90;;;;;;5115001;28;20138;-77
2021/10/28 05:32:16;;;;;;;23.80;12.15;;;4.50;99.90;;;;;;5114489;28;20497;-77
2021/10/28 05:34:44;;;;;;;22.83;11.65;;;4.50;99.90;;;;;;5114875;28;20537;-77
2021/10/28 05:37:11;;;;;;;22.48;11.77;;;4.40;99.90;;;;;;5114410;28;20051;-79
2021/10/28 05:39:39;;;;;;;24.42;12.43;;;4.40;99.90;;;;;;5114408;28;20143;-77
2021/10/28 05:42:07;;;;;;;27.98;13.18;;;4.30;99.90;;;;;;5113900;28;20580;-78
2021/10/28 05:44:34;;;;;;;30.65;14.80;;;4.30;99.90;;;;;;5114208;28;20086;-78
2021/10/28 05:47:01;;;;;;;23.30;11.88;;;4.20;99.90;;;;;;5114169;28;20122;-77
2021/10/28 05:49:31;;;;;;;31.30;15.07;;;4.10;99.90;;;;;;5114053;28;20048;-78
2021/10/28 05:51:58;;;;;;;28.00;15.13;;;4.00;99.90;;;;;;5114059;28;20103;-80
2021/10/28 05:54:25;;;;;;;27.77;14.35;;;4.10;99.90;;;;;;5113919;28;20101;-78
2021/10/28 05:56:54;;;;;;;26.15;13.90;;;4.20;99.90;;;;;;5113925;28;20138;-78
2021/10/28 05:59:21;;;;;;;24.95;12.98;;;4.10;99.90;;;;;;5114011;28;20090;-78
2021/10/28 06:01:48;;;;;;;28.83;13.18;;;4.20;99.90;;;;;;5113789;28;20075;-77
2021/10/28 06:04:15;;;;;;;25.70;13.20;;;4.20;99.90;;;;;;5113952;28;20075;-79
2021/10/28 06:06:42;;;;;;;22.27;12.38;;;4.30;99.90;;;;;;5113803;28;20568;-78
2021/10/28 06:09:09;;;;;;;22.35;12.15;;;4.30;99.90;;;;;;5113807;28;20135;-78
2021/10/28 06:11:36;;;;;;;22.45;12.88;;;4.30;99.90;;;;;;5114323;28;20090;-78
2021/10/28 06:14:04;;;;;;;23.50;11.10;;;4.30;99.90;;;;;;5114221;28;20134;-80
2021/10/28 06:16:34;;;;;;;20.02;11.43;;;4.30;99.90;;;;;;5113667;28;20075;-80
2021/10/28 06:19:01;;;;;;;22.35;11.98;;;4.40;99.90;;;;;;5112706;28;20050;-80
2021/10/28 06:21:28;;;;;;;22.67;12.07;;;4.40;99.90;;;;;;5113918;28;20127;-79
2021/10/28 06:23:55;;;;;;;20.98;11.30;;;4.40;99.90;;;;;;5113489;28;20481;-77
2021/10/28 06:26:22;;;;;;;22.15;11.90;;;4.40;99.90;;;;;;5113710;28;20126;-77
2021/10/28 06:28:49;;;;;;;17.90;10.52;;;4.40;99.90;;;;;;5113611;28;20123;-80
2021/10/28 06:31:18;;;;;;;17.63;10.50;;;4.50;99.90;;;;;;5113168;28;20079;-78
2021/10/28 06:33:51;;;;;;;15.68;9.95;;;4.50;99.90;;;;;;5113508;28;20128;-79
2021/10/28 06:36:23;;;;;;;16.73;9.93;;;4.50;99.90;;;;;;5113153;28;20047;-79
2021/10/28 06:38:50;;;;;;;18.10;9.93;;;4.50;99.90;;;;;;5113565;28;20039;-77
2021/10/28 06:41:17;;;;;;;18.90;10.48;;;4.60;99.90;;;;;;5113477;28;20146;-77
2021/10/28 06:43:45;;;;;;;20.65;11.10;;;4.70;99.90;;;;;;5113028;28;20764;-79
2021/10/28 06:46:12;;;;;;;19.73;10.75;;;4.70;99.90;;;;;;5113342;28;20404;-79
2021/10/28 06:48:40;;;;;;;16.88;8.90;;;4.70;99.90;;;;;;5113063;28;20144;-81
2021/10/28 06:51:07;;;;;;;14.90;8.65;;;4.70;99.90;;;;;;5094836;28;20461;-79
2021/10/28 06:53:42;;;;;;;15.55;8.27;;;4.70;99.90;;;;;;5113373;28;20048;-78
2021/10/28 06:56:34;;;;;;;16.50;9.70;;;4.70;99.90;;;;;;5112758;28;20054;-77
2021/10/28 07:04:30;;;;;;;15.18;9.60;;;4.70;99.90;;;;;;5113324;28;19966;-79
2021/10/28 07:06:57;;;;;;;15.52;9.93;;;4.80;99.90;;;;;;5113454;28;20079;-81
2021/10/28 07:09:30;;;;;;;14.00;9.13;;;4.80;99.90;;;;;;5112548;28;20513;-78
2021/10/28 07:12:07;;;;;;;15.43;9.00;;;4.80;99.90;;;;;;5113214;28;20058;-80
2021/10/28 07:14:34;;;;;;;16.10;9.23;;;4.80;99.90;;;;;;5112497;28;20579;-80
2021/10/28 07:17:10;;;;;;;16.60;10.00;;;4.80;99.90;;;;;;5112626;28;20052;-78
2021/10/28 07:19:57;;;;;;;15.27;9.55;;;4.80;99.90;;;;;;5112729;28;20039;-78
2021/10/28 07:22:41;;;;;;;15.45;9.07;;;4.80;99.90;;;;;;5112639;28;20047;-77
2021/10/28 07:25:31;;;;;;;14.57;8.77;;;4.80;99.90;;;;;;5112617;28;20081;-77
2021/10/28 07:33:44;;;;;;;13.23;7.50;;;4.90;99.90;;;;;;5096575;28;20085;-79
2021/10/28 07:36:34;;;;;;;13.80;8.02;;;4.90;99.90;;;;;;5112601;28;20413;-79
2021/10/28 07:39:24;;;;;;;12.00;7.13;;;5.00;99.90;;;;;;5112410;28;20093;-79
2021/10/28 07:58:46;;;;;;;9.50;6.30;;;4.90;99.90;;;;;;5070874;28;20501;-80
2021/10/28 08:23:38;;;;;;;8.18;5.57;;;5.00;99.90;;;;;;5110630;28;20051;-79
2021/10/28 08:28:54;;;;;;;7.78;5.53;;;5.10;99.90;;;;;;5111861;28;20124;-80
2021/10/28 08:31:23;;;;;;;8.55;5.93;;;5.30;99.90;;;;;;5112042;28;20062;-78
2021/10/28 08:33:51;;;;;;;9.48;6.53;;;5.40;99.90;;;;;;5111921;28;20055;-76
2021/10/28 08:36:24;;;;;;;9.85;6.20;;;5.50;99.90;;;;;;5111857;28;20552;-78
2021/10/28 08:38:51;;;;;;;8.45;6.10;;;5.60;99.90;;;;;;5111553;28;20451;-78
2021/10/28 08:41:22;;;;;;;10.73;6.93;;;5.60;99.90;;;;;;5111790;28;20131;-78
2021/10/28 08:43:50;;;;;;;10.63;6.53;;;5.70;99.90;;;;;;5114845;28;20052;-80
2021/10/28 08:46:18;;;;;;;8.43;5.93;;;5.80;99.90;;;;;;5116023;28;20048;-78
2021/10/28 08:48:49;;;;;;;9.85;6.88;;;5.80;99.90;;;;;;5115761;28;20698;-80
2021/10/28 08:51:22;;;;;;;9.07;6.80;;;5.90;99.90;;;;;;5115881;28;20039;-78
2021/10/28 08:54:05;;;;;;;9.35;6.72;;;6.00;99.90;;;;;;5114989;28;20480;-78
2021/10/28 08:56:54;;;;;;;10.95;7.10;;;6.00;99.90;;;;;;5115407;28;20548;-79
2021/10/28 09:24:37;;;;;;;10.25;6.85;;;7.00;99.90;;;;;;5115005;28;20054;-80
2021/10/28 09:27:11;;;;;;;10.05;6.88;;;;;;;;;;5115032;28;20046;-80
2021/10/28 09:29:47;;;;;;;10.60;6.95;;;7.60;99.90;;;;;;5114987;28;20044;-78
2021/10/28 09:32:27;;;;;;;10.10;6.72;;;;;;;;;;5115213;28;20142;-78
2021/10/28 09:35:14;;;;;;;11.45;7.38;;;7.40;99.90;;;;;;5114626;28;20555;-78
2021/10/28 09:43:44;;;;;;;10.43;7.38;;;7.70;99.90;;;;;;5114744;28;20074;-79
2021/10/28 09:46:20;;;;;;;10.57;7.22;;;7.80;99.90;;;;;;5094298;28;20044;-78
2021/10/28 09:51:42;;;;;;;10.82;7.10;;;7.90;99.90;;;;;;5077176;28;20075;-78
2021/10/28 09:54:18;;;;;;;10.88;7.85;;;7.90;99.90;;;;;;5111305;28;20126;-78
2021/10/28 09:59:35;;;;;;;12.13;8.10;;;8.10;99.90;;;;;;5111156;28;20518;-77
2021/10/28 10:02:13;;;;;;;13.40;8.68;;;8.10;99.90;;;;;;5110667;28;20143;-78
2021/10/28 10:04:43;;;;;;;10.77;7.82;;;8.20;99.90;;;;;;5111735;28;20473;-80
2021/10/28 10:07:11;;;;;;;12.15;7.97;;;8.30;99.90;;;;;;5127433;27;20051;-78
2021/10/28 10:09:39;;;;;;;10.77;7.88;;;8.40;99.90;;;;;;5111214;28;20078;-78
2021/10/28 10:12:07;;;;;;;11.95;8.27;;;8.50;99.90;;;;;;5111522;28;20054;-77
2021/10/28 10:14:36;;;;;;;12.32;8.40;;;8.60;99.90;;;;;;5110544;28;20469;-78
2021/10/28 10:17:06;;;;;;;12.70;8.35;;;8.70;99.90;;;;;;5111022;28;20260;-79
2021/10/28 10:19:35;;;;;;;13.65;9.15;;;8.70;99.90;;;;;;5111097;28;20138;-77
2021/10/28 10:22:17;;;;;;;13.38;9.02;;;8.80;99.90;;;;;;5111240;28;20048;-78
2021/10/28 10:25:03;;;;;;;13.98;9.65;;;8.90;99.90;;;;;;5111281;28;20112;-79
2021/10/28 11:28:06;;;;;;;14.05;9.30;;;11.40;99.90;;;;;;5106205;28;20059;-85
2021/10/28 11:30:57;;;;;;;16.25;11.02;;;11.50;99.90;;;;;;5112676;28;20060;-85
2021/10/28 11:58:56;;;;;;;14.77;10.32;;;11.60;99.90;;;;;;5113312;28;20386;-83
2021/10/28 12:27:59;;;;;;;11.75;8.77;;;15.00;98.10;;;;;;5114868;28;20051;-83
2021/10/28 12:44:56;;;;;;;13.73;9.23;;;16.20;95.50;;;;;;5114853;28;20059;-83
2021/10/28 12:50:34;;;;;;;13.30;9.32;;;16.60;94.00;;;;;;5101160;28;20047;-84
2021/10/28 12:56:22;;;;;;;12.25;8.85;;;17.20;93.20;;;;;;5113767;28;20056;-84
2021/10/28 13:38:27;;;;;;;7.25;5.10;;;32.20;44.90;;;;;;5111900;28;20055;-77
2021/10/28 13:49:19;;;;;;;6.65;4.80;;;36.40;37.60;;;;;;5108260;28;20565;-78
2021/10/28 13:51:53;;;;;;;6.32;4.70;;;37.00;36.00;;;;;;5112259;28;20044;-78
2021/10/28 15:01:15;;;;;;;5.90;4.07;;;;;;;;;;5111381;28;20050;-79
2021/10/28 15:28:32;;;;;;;5.95;4.00;;;;;;;;;;5126940;27;20055;-80
2021/10/28 15:36:41;;;;;;;6.10;3.63;;;;;;;;;;5091865;28;20671;-80
2021/10/28 15:39:14;;;;;;;5.93;3.80;;;;;;;;;;5126542;27;20112;-80
2021/10/28 15:56:25;;;;;;;8.73;4.85;;;29.80;39.40;;;;;;5069148;28;20041;-81
2021/10/28 16:23:42;;;;;;;;;;;20.50;55.20;;;;;;5108908;28;20096;-79
2021/10/28 16:26:09;;;;;;;7.53;4.40;;;20.00;56.90;;;;;;5110081;28;20010;-78
2021/10/28 16:28:36;;;;;;;7.20;4.03;;;19.50;58.40;;;;;;5108483;28;20055;-80
2021/10/28 16:31:04;;;;;;;6.82;4.22;;;19.10;59.70;;;;;;5108809;28;20051;-81
2021/10/28 16:33:31;;;;;;;7.10;4.30;;;18.70;60.90;;;;;;5109121;28;20135;-80
2021/10/28 16:35:58;;;;;;;8.27;5.00;;;18.30;62.00;;;;;;5108729;28;20286;-80
2021/10/28 16:38:26;;;;;;;8.77;4.90;;;18.00;63.10;;;;;;5109866;28;20130;-82
2021/10/28 16:40:54;;;;;;;8.88;4.65;;;17.70;64.00;;;;;;5091956;28;20144;-82
2021/10/28 16:43:21;;;;;;;7.45;4.38;;;17.50;65.30;;;;;;5109193;28;20167;-81
2021/10/28 16:45:48;;;;;;;9.60;4.95;;;17.20;66.30;;;;;;5108693;28;20106;-80
2021/10/28 16:48:16;;;;;;;7.47;4.43;;;16.90;67.50;;;;;;5108281;28;20138;-80
2021/10/28 16:50:44;;;;;;;8.18;4.80;;;16.70;69.10;;;;;;5107728;28;20146;-80
2021/10/28 16:53:12;;;;;;;6.63;4.60;;;16.50;71.00;;;;;;5108562;28;20055;-80
2021/10/28 16:55:40;;;;;;;8.40;4.43;;;16.30;73.40;;;;;;5090148;28;20055;-81
2021/10/28 16:58:10;;;;;;;7.90;4.43;;;16.00;76.50;;;;;;5108782;28;20397;-80
2021/10/28 17:00:38;;;;;;;7.57;4.97;;;15.90;80.30;;;;;;5108235;28;20039;-82
2021/10/28 17:03:05;;;;;;;8.02;4.70;;;15.60;84.10;;;;;;5107468;28;20582;-80
2021/10/28 17:05:32;;;;;;;8.23;4.97;;;15.50;87.30;;;;;;5094008;28;20086;-81
2021/10/28 17:08:00;;;;;;;8.52;5.30;;;15.30;90.20;;;;;;5118302;27;20078;-82
2021/10/28 17:10:27;;;;;;;10.25;5.00;;;15.20;91.40;;;;;;5094234;28;20131;-80
2021/10/28 17:12:56;;;;;;;7.78;5.18;;;15.00;92.30;;;;;;5112001;28;20126;-80
2021/10/28 17:15:25;;;;;;;8.43;5.00;;;14.90;92.90;;;;;;5092432;28;20079;-80
2021/10/28 17:17:53;;;;;;;8.35;5.28;;;14.80;93.40;;;;;;5109873;28;20047;-77
2021/10/28 17:20:20;;;;;;;9.50;5.22;;;14.70;93.70;;;;;;5110979;27;20043;-78
2021/10/28 17:22:48;;;;;;;11.70;5.63;;;14.50;93.90;;;;;;5118351;27;20131;-79
2021/10/28 17:25:18;;;;;;;8.15;4.80;;;14.50;94.10;;;;;;5115192;27;20407;-80
2021/10/28 17:27:47;;;;;;;7.68;5.13;;;14.30;94.20;;;;;;5104150;27;20068;-77
2021/10/28 17:30:16;;;;;;;8.38;5.10;;;14.10;94.80;;;;;;5091031;28;20131;-80
2021/10/28 17:32:45;;;;;;;8.98;4.85;;;13.90;94.90;;;;;;5091064;28;20136;-80
2021/10/28 17:35:14;;;;;;;8.75;4.82;;;13.80;95.30;;;;;;5092048;28;20044;-78
2021/10/28 17:37:42;;;;;;;9.65;5.10;;;13.70;95.50;;;;;;5109112;28;20495;-78
2021/10/28 17:40:10;;;;;;;7.55;4.78;;;13.60;95.80;;;;;;5102125;27;20134;-80
2021/10/28 17:42:39;;;;;;;7.13;4.60;;;13.50;96.10;;;;;;5100245;27;20043;-80
2021/10/28 17:45:11;;;;;;;6.97;4.25;;;13.30;96.30;;;;;;5108809;28;20044;-81
2021/10/28 17:47:38;;;;;;;7.85;4.60;;;13.20;96.40;;;;;;5114935;27;20051;-80
2021/10/28 17:50:08;;;;;;;7.82;4.60;;;13.20;96.60;;;;;;5109378;27;20141;-81
2021/10/28 17:52:36;;;;;;;7.82;4.38;;;13.10;96.80;;;;;;5101815;28;20075;-82
2021/10/28 17:55:05;;;;;;;8.27;5.05;;;13.00;97.00;;;;;;5114161;27;20118;-80
2021/10/28 17:57:33;;;;;;;6.55;4.38;;;12.90;97.20;;;;;;5122393;27;20048;-81
2021/10/28 18:00:00;;;;;;;8.80;4.30;;;12.80;97.30;;;;;;5111553;28;20052;-82
2021/10/28 18:02:27;;;;;;;7.65;4.43;;;12.80;97.20;;;;;;5117125;27;20078;-80
2021/10/28 18:04:54;;;;;;;7.32;4.80;;;12.70;97.30;;;;;;5118190;27;20093;-79
2021/10/28 18:07:22;;;;;;;9.00;4.65;;;12.60;97.60;;;;;;5115487;27;20132;-81
2021/10/28 18:09:49;;;;;;;6.85;4.25;;;12.50;97.50;;;;;;5107390;27;20490;-81
2021/10/28 18:12:17;;;;;;;8.10;4.75;;;12.40;97.50;;;;;;5106574;27;20128;-80
2021/10/28 18:14:44;;;;;;;8.05;4.88;;;12.30;97.80;;;;;;5111463;27;20607;-82
2021/10/28 18:17:11;;;;;;;7.85;5.03;;;12.20;98.20;;;;;;5110969;27;20131;-79
2021/10/28 18:19:42;;;;;;;9.95;5.63;;;12.20;98.40;;;;;;5109757;28;20051;-78
2021/10/28 18:22:09;;;;;;;9.68;6.40;;;12.10;98.60;;;;;;5109259;28;20564;-81
2021/10/28 18:24:38;;;;;;;10.55;6.93;;;12.10;99.00;;;;;;5110299;28;20130;-79
2021/10/28 18:27:07;;;;;;;11.32;5.97;;;12.00;98.70;;;;;;5110069;28;20138;-78
2021/10/28 18:29:35;;;;;;;7.13;4.60;;;12.00;98.80;;;;;;5110614;28;20190;-78
2021/10/28 18:32:02;;;;;;;7.15;4.60;;;11.90;98.70;;;;;;5110039;28;20074;-79
2021/10/28 18:34:29;;;;;;;6.05;4.03;;;11.80;98.70;;;;;;5109915;28;20135;-77
2021/10/28 18:36:56;;;;;;;6.38;4.15;;;11.80;99.00;;;;;;5109706;28;20177;-78
2021/10/28 18:39:24;;;;;;;7.00;4.45;;;11.70;99.10;;;;;;5109752;28;20409;-77
2021/10/28 18:41:53;;;;;;;7.93;4.80;;;11.60;99.10;;;;;;5109647;28;20052;-78
2021/10/28 18:44:22;;;;;;;7.55;4.18;;;11.60;99.20;;;;;;5109003;28;20040;-79
2021/10/28 18:46:49;;;;;;;6.40;3.95;;;11.60;99.40;;;;;;5109940;28;20130;-78
2021/10/28 18:49:17;;;;;;;7.18;4.15;;;11.50;99.30;;;;;;5109421;28;20401;-81
2021/10/28 18:51:47;;;;;;;6.18;4.15;;;11.50;99.40;;;;;;5109372;28;20051;-77
2021/10/28 18:54:16;;;;;;;6.55;4.28;;;11.50;99.40;;;;;;5109925;28;20501;-81
2021/10/28 18:56:43;;;;;;;6.60;4.50;;;11.50;99.40;;;;;;5109702;28;20059;-78
2021/10/28 18:59:12;;;;;;;9.48;5.18;;;11.40;99.40;;;;;;5110285;28;20079;-78
2021/10/28 19:01:39;;;;;;;9.38;5.15;;;11.40;99.50;;;;;;5109331;28;20150;-78
2021/10/28 19:04:07;;;;;;;8.40;5.60;;;11.40;99.60;;;;;;5107985;28;20043;-80
2021/10/28 19:06:34;;;;;;;8.45;5.63;;;11.30;99.50;;;;;;5109137;28;20154;-77
2021/10/28 19:09:01;;;;;;;11.77;7.20;;;11.30;99.40;;;;;;5110035;28;20047;-77
2021/10/28 19:11:28;;;;;;;10.10;7.07;;;11.20;99.10;;;;;;5109623;28;20130;-79
2021/10/28 19:13:56;;;;;;;12.48;7.68;;;11.00;99.20;;;;;;5108682;28;20397;-78
2021/10/28 19:16:24;;;;;;;10.48;7.15;;;10.90;99.40;;;;;;5105007;28;20044;-80
2021/10/28 19:18:53;;;;;;;9.60;6.10;;;10.80;99.30;;;;;;5109549;28;20139;-78
2021/10/28 19:21:21;;;;;;;9.60;5.90;;;10.70;99.50;;;;;;5108670;28;20425;-81
2021/10/28 19:23:48;;;;;;;10.10;5.57;;;10.60;99.80;;;;;;5110658;28;20048;-84
2021/10/28 19:26:17;;;;;;;8.45;5.60;;;10.50;99.90;;;;;;5115537;28;20126;-90
2021/10/28 19:28:44;;;;;;;8.32;5.80;;;10.50;99.90;;;;;;5115241;28;20047;-79
2021/10/28 19:31:14;;;;;;;8.73;5.82;;;10.50;99.90;;;;;;5108977;28;20071;-78
2021/10/28 19:33:45;;;;;;;10.55;6.90;;;10.40;99.90;;;;;;5110122;28;20073;-79
2021/10/28 19:36:16;;;;;;;11.05;7.20;;;10.40;99.90;;;;;;5108967;28;20055;-78
2021/10/28 19:39:18;;;;;;;12.27;6.90;;;10.40;99.90;;;;;;5109252;28;20089;-79
2021/10/28 19:42:03;;;;;;;13.20;6.10;;;10.30;99.90;;;;;;5108062;28;20109;-82
2021/10/28 19:47:15;;;;;;;11.07;6.80;;;10.30;99.90;;;;;;5108889;28;20516;-79
2021/10/28 19:49:46;;;;;;;9.25;6.18;;;10.30;99.90;;;;;;5108663;28;20365;-81
2021/10/28 19:52:15;;;;;;;10.98;6.53;;;10.30;99.90;;;;;;5108761;28;20495;-78
2021/10/28 19:54:44;;;;;;;9.60;6.35;;;10.30;99.90;;;;;;5108698;28;20089;-78
2021/10/28 19:57:16;;;;;;;10.85;6.45;;;10.20;99.90;;;;;;5107679;28;20052;-76
2021/10/28 19:59:47;;;;;;;11.32;6.72;;;10.20;99.90;;;;;;5129120;28;20131;-79
2021/10/28 20:02:20;;;;;;;11.80;6.57;;;10.10;99.90;;;;;;5129685;28;20054;-80
2021/10/28 20:05:05;;;;;;;9.98;6.85;;;10.00;99.90;;;;;;5129916;28;20058;-77
2021/10/28 20:07:42;;;;;;;;;;;9.90;99.90;;;;;;5114156;28;20047;-79
2021/10/28 20:13:22;;;;;;;;;;;9.80;99.90;;;;;;5109641;28;20132;-79
2021/10/28 20:21:20;;;;;;;11.90;7.75;;;9.60;99.90;;;;;;5107692;28;20062;-77
2021/10/28 20:23:49;;;;;;;14.07;8.77;;;9.60;99.90;;;;;;5109243;28;20493;-78
2021/10/28 20:26:16;;;;;;;14.43;8.82;;;9.50;99.90;;;;;;5108595;28;20069;-77
2021/10/28 20:28:46;;;;;;;14.90;10.25;;;9.50;99.90;;;;;;5108924;28;20058;-79
2021/10/28 20:31:14;;;;;;;11.85;8.65;;;9.50;99.90;;;;;;5108691;28;20042;-79
2021/10/28 20:33:46;;;;;;;12.38;8.43;;;9.50;99.90;;;;;;5093797;28;20051;-79
2021/10/28 20:39:03;;;;;;;;;;;9.50;99.90;;;;;;5110407;28;20066;-80
2021/10/28 20:41:31;;;;;;;14.25;8.80;;;9.50;99.90;;;;;;5113960;27;19979;-82
2021/10/28 20:43:59;;;;;;;15.02;8.93;;;9.50;99.90;;;;;;5112329;28;20143;-79
2021/10/28 20:46:28;;;;;;;12.50;8.93;;;9.50;99.90;;;;;;5112542;28;20044;-81
2021/10/28 20:48:56;;;;;;;15.30;9.80;;;9.40;99.90;;;;;;5112968;28;20135;-80
2021/10/28 20:51:23;;;;;;;15.23;9.45;;;9.40;99.90;;;;;;5112634;28;20870;-80
2021/10/28 20:53:51;;;;;;;14.73;9.05;;;9.40;99.90;;;;;;5113152;28;20079;-79
2021/10/28 20:56:25;;;;;;;14.93;9.48;;;9.40;99.90;;;;;;5120069;27;20055;-79
2021/10/28 20:58:52;;;;;;;15.20;9.25;;;9.40;99.90;;;;;;5133891;27;20059;-79
2021/10/28 21:01:21;;;;;;;13.70;8.90;;;9.40;99.90;;;;;;5102870;28;20079;-81
2021/10/28 21:03:48;;;;;;;11.93;7.95;;;9.40;99.90;;;;;;5114169;28;20083;-82